createdAt,value
2019-06-01T00:02:09.696Z,68.59
2019-06-01T00:04:35.143Z,68.84
2019-06-01T00:07:00.655Z,69.08
2019-06-01T00:09:26.659Z,69.02
2019-06-01T00:11:52.137Z,68.96
2019-06-01T00:14:17.605Z,68.95
2019-06-01T00:16:44.085Z,68.85
2019-06-01T00:19:09.782Z,68.81
2019-06-01T00:21:35.212Z,68.89
2019-06-01T00:24:00.668Z,68.96
2019-06-01T00:26:26.158Z,69.21
2019-06-01T00:28:53.017Z,69.31
2019-06-01T00:31:18.594Z,69.23
2019-06-01T00:33:45.324Z,69.71
2019-06-01T00:36:11.044Z,69.18
2019-06-01T00:38:36.767Z,69.20
2019-06-01T00:41:02.250Z,69.38
2019-06-01T00:43:28.011Z,69.52
2019-06-01T00:45:53.468Z,69.65
2019-06-01T00:48:18.908Z,69.58
2019-06-01T00:50:44.928Z,69.77
2019-06-01T00:53:10.374Z,70.22
2019-06-01T00:55:35.815Z,70.00
2019-06-01T00:58:03.551Z,70.10
2019-06-01T01:00:42.910Z,69.93
2019-06-01T01:02:56.192Z,70.04
2019-06-01T01:05:23.632Z,70.36
2019-06-01T01:07:49.129Z,70.28
2019-06-01T01:10:16.163Z,70.84
2019-06-01T01:12:59.178Z,70.59
2019-06-01T01:15:35.757Z,70.42
2019-06-01T01:18:01.202Z,70.75
2019-06-01T01:20:27.006Z,70.60
2019-06-01T01:22:52.465Z,70.46
2019-06-01T01:25:18.105Z,70.84
2019-06-01T01:27:43.843Z,71.04
2019-06-01T01:30:09.538Z,70.88
2019-06-01T01:32:34.944Z,70.97
2019-06-01T01:35:00.423Z,71.34
2019-06-01T01:37:25.797Z,71.38
2019-06-01T01:39:52.188Z,70.83
2019-06-01T01:42:17.750Z,70.71
2019-06-01T01:44:43.228Z,70.71
2019-06-01T01:47:08.621Z,70.77
2019-06-01T01:49:34.252Z,70.77
2019-06-01T01:51:59.968Z,71.26
2019-06-01T01:54:25.698Z,71.21
2019-06-01T01:56:52.100Z,71.10
2019-06-01T01:59:17.629Z,71.24
2019-06-01T02:01:43.030Z,71.28
2019-06-01T02:04:08.520Z,71.29
2019-06-01T02:06:33.995Z,71.56
2019-06-01T02:08:59.490Z,71.78
2019-06-01T02:11:25.155Z,71.56
2019-06-01T02:13:51.535Z,71.64
2019-06-01T02:16:17.156Z,71.11
2019-06-01T02:18:42.626Z,71.24
2019-06-01T02:21:08.104Z,71.60
2019-06-01T02:23:33.455Z,72.06
2019-06-01T02:25:59.410Z,71.89
2019-06-01T02:28:24.890Z,71.92
2019-06-01T02:30:50.388Z,72.20
2019-06-01T02:33:15.834Z,71.92
2019-06-01T02:35:41.304Z,71.63
2019-06-01T02:38:06.844Z,71.91
2019-06-01T02:40:32.324Z,71.95
2019-06-01T02:42:59.317Z,72.24
2019-06-01T02:45:25.526Z,71.99
2019-06-01T02:47:51.009Z,72.17
2019-06-01T02:50:16.692Z,72.50
2019-06-01T02:52:42.181Z,72.56
2019-06-01T02:55:09.275Z,72.08
2019-06-01T02:57:34.747Z,72.08
2019-06-01T03:00:09.516Z,72.41
2019-06-01T03:02:35.441Z,72.90
2019-06-01T03:05:01.227Z,72.05
2019-06-01T03:07:30.843Z,72.25
2019-06-01T03:09:58.744Z,72.33
2019-06-01T03:12:27.864Z,72.93
2019-06-01T03:14:56.525Z,72.34
2019-06-01T03:17:25.422Z,72.80
2019-06-01T03:19:55.073Z,72.71
2019-06-01T03:22:23.636Z,73.10
2019-06-01T03:24:53.227Z,73.18
2019-06-01T03:27:22.727Z,72.95
2019-06-01T03:29:56.821Z,72.86
2019-06-01T03:32:35.193Z,72.61
2019-06-01T03:34:49.993Z,72.83
2019-06-01T03:37:15.937Z,73.00
2019-06-01T03:39:41.905Z,73.53
2019-06-01T03:42:08.045Z,73.32
2019-06-01T03:44:33.619Z,73.00
2019-06-01T03:46:59.088Z,72.97
2019-06-01T03:49:24.551Z,73.19
2019-06-01T03:51:50.077Z,73.71
2019-06-01T03:54:15.442Z,73.50
2019-06-01T03:56:40.966Z,73.49
2019-06-01T03:59:07.292Z,73.33
2019-06-01T04:01:32.806Z,73.53
2019-06-01T04:03:58.528Z,73.63
2019-06-01T04:06:24.699Z,72.96
2019-06-01T04:08:50.132Z,73.01
2019-06-01T04:11:15.608Z,73.22
2019-06-01T04:13:44.203Z,73.37
2019-06-01T04:16:10.068Z,73.51
2019-06-01T04:18:35.548Z,73.45
2019-06-01T04:21:02.393Z,73.11
2019-06-01T04:23:28.195Z,73.17
2019-06-01T04:25:53.668Z,73.37
2019-06-01T04:28:19.126Z,73.23
2019-06-01T04:30:44.602Z,73.63
2019-06-01T04:33:11.040Z,73.20
2019-06-01T04:35:36.468Z,73.88
2019-06-01T04:38:03.023Z,73.90
2019-06-01T04:40:28.587Z,74.27
2019-06-01T04:42:54.117Z,74.05
2019-06-01T04:45:19.576Z,74.05
2019-06-01T04:47:45.031Z,74.59
2019-06-01T04:50:11.138Z,74.32
2019-06-01T04:52:36.673Z,74.21
2019-06-01T04:55:02.239Z,74.02
2019-06-01T04:57:27.625Z,74.16
2019-06-01T04:59:53.116Z,73.88
2019-06-01T05:02:18.853Z,73.67
2019-06-01T05:04:44.679Z,74.38
2019-06-01T05:07:13.472Z,74.48
2019-06-01T05:09:39.109Z,73.63
2019-06-01T05:12:05.261Z,74.24
2019-06-01T05:14:30.746Z,74.54
2019-06-01T05:16:56.456Z,74.33
2019-06-01T05:19:21.920Z,74.02
2019-06-01T05:21:47.419Z,74.39
2019-06-01T05:24:13.155Z,74.19
2019-06-01T05:26:38.625Z,74.46
2019-06-01T05:29:04.013Z,74.54
2019-06-01T05:31:29.474Z,74.27
2019-06-01T05:33:55.586Z,73.47
2019-06-01T05:36:21.087Z,74.16
2019-06-01T05:38:46.532Z,73.72
2019-06-01T05:41:13.262Z,73.57
2019-06-01T05:43:39.321Z,73.93
2019-06-01T05:46:04.885Z,73.46
2019-06-01T05:48:30.885Z,73.44
2019-06-01T05:50:56.464Z,73.19
2019-06-01T05:53:23.108Z,73.24
2019-06-01T05:55:48.678Z,72.31
2019-06-01T05:58:15.089Z,72.79
2019-06-01T06:00:43.050Z,72.11
2019-06-01T06:03:08.412Z,70.88
2019-06-01T06:05:33.847Z,70.14
2019-06-01T06:07:59.630Z,70.75
2019-06-01T06:10:25.115Z,69.73
2019-06-01T06:12:50.583Z,69.48
2019-06-01T06:15:17.512Z,69.09
2019-06-01T06:17:43.087Z,67.79
2019-06-01T06:20:08.977Z,68.19
2019-06-01T06:22:34.367Z,66.87
2019-06-01T06:24:59.889Z,66.32
2019-06-01T06:27:25.637Z,66.07
2019-06-01T06:30:02.312Z,65.79
2019-06-01T06:32:28.091Z,65.93
2019-06-01T06:34:56.856Z,65.65
2019-06-01T06:37:22.352Z,65.65
2019-06-01T06:39:48.084Z,65.20
2019-06-01T06:42:14.163Z,65.29
2019-06-01T06:44:46.489Z,63.15
2019-06-01T06:47:11.972Z,63.13
2019-06-01T06:49:37.688Z,62.91
2019-06-01T06:52:03.427Z,63.17
2019-06-01T06:54:28.888Z,64.79
2019-06-01T06:56:57.813Z,63.43
2019-06-01T06:59:24.484Z,64.07
2019-06-01T07:01:56.236Z,63.67
2019-06-01T07:04:23.344Z,64.15
2019-06-01T07:06:48.764Z,64.79
2019-06-01T07:09:14.893Z,63.85
2019-06-01T07:11:40.636Z,62.03
2019-06-01T07:14:06.184Z,62.22
2019-06-01T07:16:34.259Z,62.92
2019-06-01T07:18:59.824Z,62.63
2019-06-01T07:21:25.876Z,61.36
2019-06-01T07:23:51.581Z,61.89
2019-06-01T07:26:17.265Z,61.45
2019-06-01T07:28:44.632Z,61.47
2019-06-01T07:31:10.123Z,62.12
2019-06-01T07:33:35.546Z,60.78
2019-06-01T07:36:01.311Z,60.79
2019-06-01T07:38:27.028Z,61.17
2019-06-01T07:40:52.639Z,60.44
2019-06-01T07:43:18.197Z,61.79
2019-06-01T07:45:46.766Z,60.39
2019-06-01T07:48:12.617Z,60.68
2019-06-01T07:50:37.999Z,60.75
2019-06-01T07:53:04.590Z,61.21
2019-06-01T07:55:34.987Z,61.22
2019-06-01T07:58:00.686Z,61.46
2019-06-01T08:00:27.212Z,60.38
2019-06-01T08:02:52.879Z,61.06
2019-06-01T08:05:33.190Z,60.35
2019-06-01T08:07:58.803Z,60.55
2019-06-01T08:10:24.915Z,60.40
2019-06-01T08:12:51.934Z,59.25
2019-06-01T08:15:19.415Z,61.90
2019-06-01T08:17:45.239Z,58.21
2019-06-01T08:20:12.576Z,57.64
2019-06-01T08:22:38.175Z,57.01
2019-06-01T08:25:04.036Z,57.79
2019-06-01T08:27:30.611Z,57.80
2019-06-01T08:29:56.077Z,56.55
2019-06-01T08:32:22.680Z,56.52
2019-06-01T08:34:48.203Z,55.73
2019-06-01T08:37:14.179Z,55.74
2019-06-01T08:39:39.646Z,55.54
2019-06-01T08:42:05.145Z,56.03
2019-06-01T08:44:31.685Z,56.38
2019-06-01T08:46:57.223Z,56.86
2019-06-01T08:49:23.913Z,55.06
2019-06-01T08:51:49.411Z,56.94
2019-06-01T08:54:16.667Z,55.48
2019-06-01T08:56:42.226Z,55.75
2019-06-01T08:59:07.947Z,55.45
2019-06-01T09:01:34.941Z,56.24
2019-06-01T09:04:00.575Z,53.53
2019-06-01T09:06:26.733Z,54.30
2019-06-01T09:08:52.632Z,53.98
2019-06-01T09:11:18.155Z,54.75
2019-06-01T09:13:43.610Z,56.16
2019-06-01T09:16:09.175Z,54.28
2019-06-01T09:18:35.832Z,53.95
2019-06-01T09:21:01.633Z,54.64
2019-06-01T09:23:27.624Z,53.92
2019-06-01T09:25:53.170Z,55.38
2019-06-01T09:28:18.613Z,55.14
2019-06-01T09:30:44.115Z,54.09
2019-06-01T09:33:09.871Z,54.14
2019-06-01T09:35:52.589Z,53.57
2019-06-01T09:38:13.594Z,54.36
2019-06-01T09:40:39.298Z,52.36
2019-06-01T09:43:05.092Z,52.40
2019-06-01T09:45:30.532Z,52.24
2019-06-01T09:47:56.005Z,52.54
2019-06-01T09:50:21.995Z,51.92
2019-06-01T09:52:47.448Z,51.87
2019-06-01T09:55:25.198Z,52.37
2019-06-01T09:57:50.575Z,51.08
2019-06-01T10:00:18.024Z,51.40
2019-06-01T10:02:43.490Z,51.62
2019-06-01T10:05:09.066Z,52.64
2019-06-01T10:07:34.936Z,53.84
2019-06-01T10:10:00.514Z,52.90
2019-06-01T10:12:26.169Z,52.39
2019-06-01T10:14:51.635Z,51.58
2019-06-01T10:17:17.409Z,52.71
2019-06-01T10:19:43.066Z,52.33
2019-06-01T10:22:08.616Z,51.62
2019-06-01T10:24:35.135Z,51.14
2019-06-01T10:27:00.629Z,52.91
2019-06-01T10:29:26.126Z,51.46
2019-06-01T10:31:51.483Z,49.14
2019-06-01T10:34:17.128Z,48.47
2019-06-01T10:36:42.838Z,49.29
2019-06-01T10:39:09.302Z,49.93
2019-06-01T10:41:35.319Z,49.18
2019-06-01T10:44:01.173Z,49.25
2019-06-01T10:46:26.738Z,48.86
2019-06-01T10:48:52.460Z,48.38
2019-06-01T10:51:17.966Z,48.30
2019-06-01T10:53:43.881Z,49.34
2019-06-01T10:56:09.325Z,48.90
2019-06-01T10:58:56.649Z,50.65
2019-06-01T11:01:08.424Z,50.56
2019-06-01T11:03:34.617Z,48.88
2019-06-01T11:06:00.174Z,48.96
2019-06-01T11:08:25.752Z,47.33
2019-06-01T11:10:52.001Z,46.70
2019-06-01T11:13:17.619Z,47.79
2019-06-01T11:15:43.366Z,48.26
2019-06-01T11:18:18.241Z,49.70
2019-06-01T11:20:43.825Z,48.16
2019-06-01T11:23:09.462Z,47.98
2019-06-01T11:25:35.685Z,47.22
2019-06-01T11:28:01.127Z,47.71
2019-06-01T11:30:26.784Z,46.92
2019-06-01T11:32:52.512Z,47.41
2019-06-01T11:35:18.092Z,47.60
2019-06-01T11:37:44.542Z,47.93
2019-06-01T11:40:10.433Z,47.38
2019-06-01T11:42:38.899Z,47.67
2019-06-01T11:45:04.937Z,47.01
2019-06-01T11:47:30.813Z,46.21
2019-06-01T11:49:56.250Z,44.77
2019-06-01T11:52:22.720Z,45.50
2019-06-01T11:54:48.193Z,44.97
2019-06-01T11:57:14.183Z,45.41
2019-06-01T11:59:39.693Z,44.94
2019-06-01T12:02:05.203Z,45.00
2019-06-01T12:04:30.585Z,47.50
2019-06-01T12:06:55.970Z,45.99
2019-06-01T12:09:22.010Z,45.99
2019-06-01T12:11:47.311Z,46.73
2019-06-01T12:14:13.025Z,47.40
2019-06-01T12:16:38.512Z,46.06
2019-06-01T12:19:08.203Z,44.95
2019-06-01T12:21:34.318Z,43.92
2019-06-01T12:24:00.052Z,43.99
2019-06-01T12:26:25.519Z,45.42
2019-06-01T12:28:50.936Z,43.42
2019-06-01T12:31:16.404Z,44.35
2019-06-01T12:33:42.047Z,44.49
2019-06-01T12:36:07.582Z,43.73
2019-06-01T12:38:36.058Z,44.27
2019-06-01T12:41:04.692Z,43.20
2019-06-01T12:43:30.203Z,43.47
2019-06-01T12:46:06.935Z,44.68
2019-06-01T12:48:22.729Z,44.66
2019-06-01T12:50:50.792Z,44.00
2019-06-01T12:53:16.459Z,42.92
2019-06-01T12:55:42.667Z,44.17
2019-06-01T12:58:08.063Z,43.21
2019-06-01T13:00:33.780Z,44.09
2019-06-01T13:03:06.934Z,43.55
2019-06-01T13:05:26.434Z,44.27
2019-06-01T13:08:01.738Z,43.96
2019-06-01T13:10:21.677Z,43.86
2019-06-01T13:12:54.125Z,43.90
2019-06-01T13:15:20.158Z,43.24
2019-06-01T13:17:45.632Z,44.56
2019-06-01T13:20:11.294Z,44.13
2019-06-01T13:22:41.948Z,43.59
2019-06-01T13:25:13.678Z,43.88
2019-06-01T13:27:40.964Z,44.12
2019-06-01T13:30:07.488Z,43.53
2019-06-01T13:32:33.262Z,45.94
2019-06-01T13:34:58.984Z,42.66
2019-06-01T13:37:24.478Z,42.84
2019-06-01T13:39:55.793Z,43.83
2019-06-01T13:42:17.373Z,42.33
2019-06-01T13:44:43.347Z,42.97
2019-06-01T13:47:08.842Z,42.61
2019-06-01T13:49:34.571Z,41.23
2019-06-01T13:51:59.950Z,42.01
2019-06-01T13:54:25.407Z,42.75
2019-06-01T13:56:51.081Z,42.43
2019-06-01T13:59:21.416Z,41.12
2019-06-01T14:01:51.381Z,41.44
2019-06-01T14:04:17.363Z,41.31
2019-06-01T14:06:45.123Z,41.90
2019-06-01T14:09:10.677Z,40.63
2019-06-01T14:11:36.394Z,42.37
2019-06-01T14:14:07.199Z,40.96
2019-06-01T14:16:32.804Z,41.75
2019-06-01T14:18:58.301Z,40.96
2019-06-01T14:21:23.968Z,41.31
2019-06-01T14:23:50.132Z,41.05
2019-06-01T14:26:15.561Z,40.94
2019-06-01T14:28:41.057Z,40.88
2019-06-01T14:31:06.911Z,40.99
2019-06-01T14:33:35.371Z,40.87
2019-06-01T14:36:00.910Z,40.73
2019-06-01T14:38:26.461Z,40.82
2019-06-01T14:40:53.586Z,41.79
2019-06-01T14:43:19.128Z,40.82
2019-06-01T14:45:44.748Z,41.39
2019-06-01T14:48:10.234Z,40.87
2019-06-01T14:50:35.656Z,41.90
2019-06-01T14:53:00.990Z,40.59
2019-06-01T14:55:26.449Z,41.54
2019-06-01T14:57:53.952Z,40.54
2019-06-01T15:00:20.624Z,39.90
2019-06-01T15:02:46.052Z,40.06
2019-06-01T15:05:12.577Z,40.76
2019-06-01T15:07:38.131Z,41.22
2019-06-01T15:10:03.735Z,40.90
2019-06-01T15:12:29.234Z,41.27
2019-06-01T15:14:55.521Z,40.98
2019-06-01T15:17:23.664Z,40.83
2019-06-01T15:19:49.970Z,41.58
2019-06-01T15:22:15.734Z,41.54
2019-06-01T15:24:41.508Z,41.21
2019-06-01T15:27:07.029Z,41.05
2019-06-01T15:29:32.501Z,41.73
2019-06-01T15:31:58.110Z,42.05
2019-06-01T15:34:23.655Z,41.00
2019-06-01T15:36:49.296Z,40.79
2019-06-01T15:39:24.352Z,40.59
2019-06-01T15:41:42.059Z,40.64
2019-06-01T15:44:07.849Z,39.94
2019-06-01T15:46:33.919Z,40.74
2019-06-01T15:49:00.163Z,40.54
2019-06-01T15:51:26.213Z,40.51
2019-06-01T15:53:52.916Z,40.85
2019-06-01T15:56:18.808Z,40.81
2019-06-01T15:58:53.098Z,40.90
2019-06-01T16:01:11.621Z,41.02
2019-06-01T16:03:37.261Z,40.35
2019-06-01T16:06:03.480Z,40.90
2019-06-01T16:08:29.453Z,40.64
2019-06-01T16:10:55.232Z,40.82
2019-06-01T16:13:20.969Z,39.98
2019-06-01T16:15:46.597Z,39.76
2019-06-01T16:18:12.208Z,39.97
2019-06-01T16:20:38.012Z,40.12
2019-06-01T16:23:05.047Z,40.57
2019-06-01T16:25:31.038Z,40.80
2019-06-01T16:27:56.765Z,40.54
2019-06-01T16:30:29.303Z,40.27
2019-06-01T16:32:54.774Z,40.24
2019-06-01T16:35:20.480Z,40.10
2019-06-01T16:37:46.064Z,40.56
2019-06-01T16:40:12.923Z,39.00
2019-06-01T16:42:38.459Z,39.71
2019-06-01T16:45:04.255Z,39.93
2019-06-01T16:47:29.923Z,40.27
2019-06-01T16:49:55.810Z,40.99
2019-06-01T16:52:21.779Z,40.91
2019-06-01T16:54:47.243Z,41.60
2019-06-01T16:57:13.418Z,41.41
2019-06-01T16:59:38.909Z,40.48
2019-06-01T17:02:05.955Z,40.74
2019-06-01T17:04:31.600Z,40.76
2019-06-01T17:06:57.130Z,40.47
2019-06-01T17:09:23.139Z,40.91
2019-06-01T17:11:49.977Z,41.17
2019-06-01T17:14:15.767Z,41.03
2019-06-01T17:16:41.299Z,41.03
2019-06-01T17:19:07.987Z,41.09
2019-06-01T17:21:33.529Z,41.20
2019-06-01T17:23:59.510Z,41.52
2019-06-01T17:26:25.297Z,42.44
2019-06-01T17:28:51.052Z,41.77
2019-06-01T17:31:16.935Z,41.53
2019-06-01T17:33:42.645Z,42.73
2019-06-01T17:36:08.978Z,41.78
2019-06-01T17:38:34.706Z,41.25
2019-06-01T17:41:00.381Z,41.44
2019-06-01T17:43:25.864Z,42.15
2019-06-01T17:45:51.756Z,41.18
2019-06-01T17:48:25.504Z,40.88
2019-06-01T17:50:45.688Z,41.18
2019-06-01T17:53:11.151Z,41.25
2019-06-01T17:55:39.066Z,42.21
2019-06-01T17:58:05.756Z,41.01
2019-06-01T18:00:31.371Z,41.47
2019-06-01T18:02:56.894Z,42.69
2019-06-01T18:05:22.352Z,43.13
2019-06-01T18:07:47.816Z,41.93
2019-06-01T18:10:13.247Z,42.60
2019-06-01T18:12:38.879Z,42.71
2019-06-01T18:15:06.084Z,42.22
2019-06-01T18:17:31.759Z,41.14
2019-06-01T18:19:57.656Z,42.22
2019-06-01T18:22:23.123Z,43.25
2019-06-01T18:24:49.242Z,42.89
2019-06-01T18:27:15.205Z,43.98
2019-06-01T18:29:48.641Z,44.21
2019-06-01T18:32:12.128Z,44.91
2019-06-01T18:34:37.644Z,43.80
2019-06-01T18:37:03.245Z,44.50
2019-06-01T18:39:28.743Z,45.67
2019-06-01T18:41:54.437Z,46.27
2019-06-01T18:44:19.837Z,46.26
2019-06-01T18:46:45.587Z,46.67
2019-06-01T18:49:11.945Z,46.50
2019-06-01T18:51:37.484Z,47.46
2019-06-01T18:54:04.149Z,47.75
2019-06-01T18:56:29.871Z,47.21
2019-06-01T18:58:55.313Z,48.01
2019-06-01T19:01:21.318Z,48.66
2019-06-01T19:03:46.879Z,49.33
2019-06-01T19:06:12.410Z,49.70
2019-06-01T19:08:37.878Z,49.40
2019-06-01T19:11:03.386Z,49.64
2019-06-01T19:13:28.836Z,50.66
2019-06-01T19:15:54.273Z,50.69
2019-06-01T19:18:19.857Z,50.86
2019-06-01T19:20:45.371Z,51.46
2019-06-01T19:23:10.898Z,51.31
2019-06-01T19:25:36.552Z,52.80
2019-06-01T19:28:02.025Z,52.50
2019-06-01T19:30:42.350Z,52.56
2019-06-01T19:33:11.826Z,52.58
2019-06-01T19:35:36.867Z,53.18
2019-06-01T19:38:03.879Z,52.29
2019-06-01T19:40:35.556Z,53.28
2019-06-01T19:43:01.383Z,52.76
2019-06-01T19:45:29.539Z,53.84
2019-06-01T19:47:53.911Z,54.13
2019-06-01T19:50:19.431Z,53.61
2019-06-01T19:52:45.347Z,54.36
2019-06-01T19:55:10.852Z,55.48
2019-06-01T19:57:36.327Z,54.53
2019-06-01T20:00:01.808Z,54.78
2019-06-01T20:02:33.614Z,55.28
2019-06-01T20:04:54.882Z,55.02
2019-06-01T20:07:21.383Z,55.87
2019-06-01T20:09:47.116Z,55.65
2019-06-01T20:12:16.362Z,57.40
2019-06-01T20:14:40.284Z,56.24
2019-06-01T20:17:05.763Z,55.47
2019-06-01T20:19:31.330Z,56.28
2019-06-01T20:21:56.778Z,55.66
2019-06-01T20:24:22.233Z,56.20
2019-06-01T20:26:49.396Z,56.93
2019-06-01T20:29:15.636Z,56.82
2019-06-01T20:31:41.223Z,56.73
2019-06-01T20:34:06.713Z,56.96
2019-06-01T20:36:32.209Z,57.04
2019-06-01T20:38:57.907Z,57.39
2019-06-01T20:41:25.638Z,57.47
2019-06-01T20:43:53.156Z,57.61
2019-06-01T20:46:18.904Z,57.67
2019-06-01T20:48:44.420Z,57.62
2019-06-01T20:51:09.886Z,57.97
2019-06-01T20:53:35.694Z,58.38
2019-06-01T20:56:01.427Z,58.31
2019-06-01T20:58:26.874Z,58.63
2019-06-01T21:00:52.328Z,58.80
2019-06-01T21:03:17.813Z,58.73
2019-06-01T21:05:43.230Z,58.85
2019-06-01T21:08:08.706Z,58.73
2019-06-01T21:10:34.201Z,59.19
2019-06-01T21:12:59.665Z,59.31
2019-06-01T21:15:25.467Z,59.59
2019-06-01T21:17:51.192Z,59.55
2019-06-01T21:20:23.309Z,59.49
2019-06-01T21:22:44.878Z,60.01
2019-06-01T21:25:11.056Z,59.65
2019-06-01T21:27:36.729Z,60.31
2019-06-01T21:30:02.222Z,60.82
2019-06-01T21:32:27.734Z,61.02
2019-06-01T21:34:53.131Z,61.17
2019-06-01T21:37:19.347Z,60.81
2019-06-01T21:39:44.780Z,61.19
2019-06-01T21:42:10.253Z,61.58
2019-06-01T21:44:35.713Z,61.65
2019-06-01T21:47:01.151Z,61.67
2019-06-01T21:49:26.964Z,61.82
2019-06-01T21:51:53.154Z,61.52
2019-06-01T21:54:20.051Z,61.49
2019-06-01T21:56:45.653Z,62.14
2019-06-01T21:59:11.403Z,63.02
2019-06-01T22:01:36.842Z,62.69
2019-06-01T22:04:02.312Z,62.42
2019-06-01T22:06:27.817Z,62.41
2019-06-01T22:08:53.689Z,62.38
2019-06-01T22:11:19.446Z,62.27
2019-06-01T22:13:45.003Z,62.93
2019-06-01T22:16:10.444Z,62.80
2019-06-01T22:18:35.911Z,63.02
2019-06-01T22:21:01.382Z,63.10
2019-06-01T22:23:28.048Z,63.24
2019-06-01T22:25:53.682Z,63.78
2019-06-01T22:28:20.331Z,63.81
2019-06-01T22:30:45.808Z,63.94
2019-06-01T22:33:11.191Z,63.47
2019-06-01T22:35:36.640Z,64.10
2019-06-01T22:38:02.015Z,64.58
2019-06-01T22:40:27.533Z,64.53
2019-06-01T22:42:53.021Z,63.84
2019-06-01T22:45:18.478Z,64.12
2019-06-01T22:47:43.908Z,64.00
2019-06-01T22:50:09.698Z,64.23
2019-06-01T22:52:35.450Z,64.56
2019-06-01T22:55:00.931Z,64.80
2019-06-01T22:57:26.698Z,65.11
2019-06-01T22:59:52.205Z,65.46
2019-06-01T23:02:17.644Z,65.21
2019-06-01T23:04:43.069Z,64.93
2019-06-01T23:07:08.539Z,64.90
2019-06-01T23:09:33.996Z,65.34
2019-06-01T23:11:59.482Z,65.41
2019-06-01T23:14:25.274Z,65.54
2019-06-01T23:16:50.889Z,65.61
2019-06-01T23:19:16.583Z,65.58
2019-06-01T23:21:42.290Z,66.00
2019-06-01T23:24:07.778Z,66.04
2019-06-01T23:26:35.336Z,66.11
2019-06-01T23:29:00.704Z,65.86
2019-06-01T23:31:26.317Z,66.19
2019-06-01T23:33:51.663Z,66.48
2019-06-01T23:36:17.575Z,66.48
2019-06-01T23:38:43.033Z,66.52
2019-06-01T23:41:08.528Z,66.37
2019-06-01T23:43:34.219Z,66.11
2019-06-01T23:45:59.719Z,66.59
2019-06-01T23:48:25.166Z,66.59
2019-06-01T23:50:51.680Z,67.31
2019-06-01T23:53:17.129Z,66.99
2019-06-01T23:55:42.580Z,66.72
2019-06-01T23:58:08.021Z,66.69
